Pinehill, Texas
Current Conditions -  °F | °C
As of 6:15 AM on Friday 28 Nov 2014 (Local Time) from KRFI Reporting Station
Clear Clear  
Wind Chill: 36°   Ceiling: Unl
Heat Index: 36°   Visibility: 10mi
Dew Point: 33°   Wind: 3mph
Humidity: 90%   Direction: 160°SSE
Pressure: 30.35"   Gusts: NA
Location:  32.1449°N, 94.7416°W
Report Text: KRFI 281215Z AUTO 16003KT 10SM CLR 02/01 A3035 RMK AO2 T00200005
Loading
Personal Weather Stations






























Interactive Weather Map New forecast layout! Learn more

10-Day Weather Forecast

Advertisements
Track Severe Weather on mobile